sensor_id;sensor_type;location;lat;lon;timestamp;pressure;altitude;pressure_sealevel;temperature;humidity
59829;BME280;45708;51.848;107.620;2023-05-12T00:04:07;94753.41;;;15.51;27.39
59829;BME280;45708;51.848;107.620;2023-05-12T00:09:08;94769.28;;;15.78;27.35
59829;BME280;45708;51.848;107.620;2023-05-12T00:14:09;94750.22;;;16.01;27.54
59829;BME280;45708;51.848;107.620;2023-05-12T00:19:10;94743.50;;;15.41;27.31
59829;BME280;45708;51.848;107.620;2023-05-12T00:24:11;94749.94;;;15.93;26.75
59829;BME280;45708;51.848;107.620;2023-05-12T00:29:12;94730.19;;;17.02;25.56
59829;BME280;45708;51.848;107.620;2023-05-12T00:34:13;94719.47;;;17.32;25.21
59829;BME280;45708;51.848;107.620;2023-05-12T00:39:13;94710.03;;;16.18;25.08
59829;BME280;45708;51.848;107.620;2023-05-12T00:44:14;94699.81;;;13.82;27.25
59829;BME280;45708;51.848;107.620;2023-05-12T00:49:15;94683.28;;;14.83;26.82
59829;BME280;45708;51.848;107.620;2023-05-12T00:54:16;94677.72;;;14.57;26.86
59829;BME280;45708;51.848;107.620;2023-05-12T00:59:17;94676.31;;;15.66;26.11
59829;BME280;45708;51.848;107.620;2023-05-12T01:04:18;94671.59;;;15.84;25.88
59829;BME280;45708;51.848;107.620;2023-05-12T01:09:19;94665.34;;;16.71;25.15
59829;BME280;45708;51.848;107.620;2023-05-12T01:14:20;94645.66;;;17.77;23.20
59829;BME280;45708;51.848;107.620;2023-05-12T01:19:40;94640.22;;;18.76;22.46
59829;BME280;45708;51.848;107.620;2023-05-12T01:24:53;94628.41;;;19.64;22.88
59829;BME280;45708;51.848;107.620;2023-05-12T01:29:58;94630.25;;;20.95;20.85
59829;BME280;45708;51.848;107.620;2023-05-12T01:34:59;94605.28;;;21.41;20.07
59829;BME280;45708;51.848;107.620;2023-05-12T01:40:00;94590.75;;;21.42;20.03
59829;BME280;45708;51.848;107.620;2023-05-12T01:45:01;94552.50;;;21.17;20.43
59829;BME280;45708;51.848;107.620;2023-05-12T01:50:03;94574.00;;;19.82;21.18
59829;BME280;45708;51.848;107.620;2023-05-12T01:55:04;94568.63;;;18.92;22.06
59829;BME280;45708;51.848;107.620;2023-05-12T02:00:08;94562.72;;;19.85;21.54
59829;BME280;45708;51.848;107.620;2023-05-12T02:05:09;94537.63;;;20.14;21.01
59829;BME280;45708;51.848;107.620;2023-05-12T02:10:10;94539.63;;;19.89;21.14
59829;BME280;45708;51.848;107.620;2023-05-12T02:15:11;94530.47;;;19.90;20.85
59829;BME280;45708;51.848;107.620;2023-05-12T02:20:12;94523.09;;;19.63;21.16
59829;BME280;45708;51.848;107.620;2023-05-12T02:25:13;94521.06;;;19.74;20.97
59829;BME280;45708;51.848;107.620;2023-05-12T02:30:14;94513.63;;;19.28;21.34
59829;BME280;45708;51.848;107.620;2023-05-12T02:35:15;94489.00;;;19.69;21.20
59829;BME280;45708;51.848;107.620;2023-05-12T02:40:15;94489.44;;;18.91;21.53
59829;BME280;45708;51.848;107.620;2023-05-12T02:45:16;94473.88;;;17.77;22.75
59829;BME280;45708;51.848;107.620;2023-05-12T02:50:17;94438.88;;;16.85;23.49
59829;BME280;45708;51.848;107.620;2023-05-12T02:55:18;94439.63;;;15.65;25.34
59829;BME280;45708;51.848;107.620;2023-05-12T03:00:19;94444.28;;;15.07;25.92
59829;BME280;45708;51.848;107.620;2023-05-12T03:05:20;94430.66;;;14.83;25.78
59829;BME280;45708;51.848;107.620;2023-05-12T03:10:20;94420.41;;;14.49;26.52
59829;BME280;45708;51.848;107.620;2023-05-12T03:15:21;94410.72;;;14.28;26.70
59829;BME280;45708;51.848;107.620;2023-05-12T03:20:22;94397.34;;;14.08;27.56
59829;BME280;45708;51.848;107.620;2023-05-12T03:25:23;94377.16;;;14.07;27.81
59829;BME280;45708;51.848;107.620;2023-05-12T03:30:24;94383.69;;;13.94;28.36
59829;BME280;45708;51.848;107.620;2023-05-12T03:35:24;94389.94;;;14.15;28.79
59829;BME280;45708;51.848;107.620;2023-05-12T03:40:25;94367.72;;;14.36;28.57
59829;BME280;45708;51.848;107.620;2023-05-12T03:45:26;94362.50;;;14.51;28.30
59829;BME280;45708;51.848;107.620;2023-05-12T03:50:27;94297.00;;;14.25;28.75
59829;BME280;45708;51.848;107.620;2023-05-12T03:55:28;94324.28;;;14.68;28.24
59829;BME280;45708;51.848;107.620;2023-05-12T04:00:28;94321.28;;;14.44;28.61
59829;BME280;45708;51.848;107.620;2023-05-12T04:05:29;94331.19;;;14.69;29.12
59829;BME280;45708;51.848;107.620;2023-05-12T04:10:30;94298.25;;;14.85;28.65
59829;BME280;45708;51.848;107.620;2023-05-12T04:15:31;94284.94;;;15.00;28.39
59829;BME280;45708;51.848;107.620;2023-05-12T04:20:31;94275.66;;;15.23;28.14
59829;BME280;45708;51.848;107.620;2023-05-12T04:25:32;94242.94;;;15.23;28.49
59829;BME280;45708;51.848;107.620;2023-05-12T04:30:33;94242.84;;;15.58;28.25
59829;BME280;45708;51.848;107.620;2023-05-12T04:35:34;94227.34;;;15.80;27.46
59829;BME280;45708;51.848;107.620;2023-05-12T04:40:35;94211.94;;;15.82;27.88
59829;BME280;45708;51.848;107.620;2023-05-12T04:45:36;94192.84;;;15.45;27.86
59829;BME280;45708;51.848;107.620;2023-05-12T04:50:37;94196.28;;;15.50;28.42
59829;BME280;45708;51.848;107.620;2023-05-12T04:55:37;94184.84;;;15.65;28.00
59829;BME280;45708;51.848;107.620;2023-05-12T05:00:38;94189.03;;;15.76;27.84
59829;BME280;45708;51.848;107.620;2023-05-12T05:05:39;94173.88;;;15.72;28.05
59829;BME280;45708;51.848;107.620;2023-05-12T05:10:40;94151.00;;;16.15;27.16
59829;BME280;45708;51.848;107.620;2023-05-12T05:15:51;94167.50;;;16.22;27.76
59829;BME280;45708;51.848;107.620;2023-05-12T05:20:52;94135.53;;;16.22;27.71
59829;BME280;45708;51.848;107.620;2023-05-12T05:25:52;94146.06;;;16.42;27.25
59829;BME280;45708;51.848;107.620;2023-05-12T05:30:53;94108.63;;;16.19;27.26
59829;BME280;45708;51.848;107.620;2023-05-12T05:35:54;94101.69;;;16.23;27.27
59829;BME280;45708;51.848;107.620;2023-05-12T05:40:55;94095.94;;;16.39;27.28
59829;BME280;45708;51.848;107.620;2023-05-12T05:45:56;94069.78;;;16.47;27.40
59829;BME280;45708;51.848;107.620;2023-05-12T05:50:57;94066.41;;;16.65;26.29
59829;BME280;45708;51.848;107.620;2023-05-12T05:55:58;94052.72;;;16.48;27.00
59829;BME280;45708;51.848;107.620;2023-05-12T06:00:58;94049.34;;;16.66;26.87
59829;BME280;45708;51.848;107.620;2023-05-12T06:05:59;94040.16;;;16.82;26.58
59829;BME280;45708;51.848;107.620;2023-05-12T06:11:00;94030.78;;;16.85;26.36
59829;BME280;45708;51.848;107.620;2023-05-12T06:16:01;94027.69;;;16.96;26.12
59829;BME280;45708;51.848;107.620;2023-05-12T06:21:02;94010.22;;;16.85;26.47
59829;BME280;45708;51.848;107.620;2023-05-12T06:26:03;94011.09;;;17.05;26.34
59829;BME280;45708;51.848;107.620;2023-05-12T06:31:07;93995.38;;;17.22;25.89
59829;BME280;45708;51.848;107.620;2023-05-12T06:36:08;93980.22;;;17.17;26.41
59829;BME280;45708;51.848;107.620;2023-05-12T06:41:09;93971.13;;;17.18;25.96
59829;BME280;45708;51.848;107.620;2023-05-12T06:46:10;93951.88;;;17.40;25.95
59829;BME280;45708;51.848;107.620;2023-05-12T06:51:11;93947.72;;;17.72;25.38
59829;BME280;45708;51.848;107.620;2023-05-12T06:56:12;93940.63;;;17.81;25.41
59829;BME280;45708;51.848;107.620;2023-05-12T07:01:14;93931.03;;;17.80;25.58
59829;BME280;45708;51.848;107.620;2023-05-12T07:06:15;93930.72;;;18.14;25.01
59829;BME280;45708;51.848;107.620;2023-05-12T07:11:15;93915.72;;;18.32;24.88
59829;BME280;45708;51.848;107.620;2023-05-12T07:16:17;93904.56;;;17.97;25.08
59829;BME280;45708;51.848;107.620;2023-05-12T07:21:18;93853.06;;;17.45;25.27
59829;BME280;45708;51.848;107.620;2023-05-12T07:26:19;93885.56;;;17.85;25.22
59829;BME280;45708;51.848;107.620;2023-05-12T07:31:20;93888.97;;;18.04;25.27
59829;BME280;45708;51.848;107.620;2023-05-12T07:36:21;93874.41;;;18.10;25.26
59829;BME280;45708;51.848;107.620;2023-05-12T07:41:22;93866.50;;;18.19;25.12
59829;BME280;45708;51.848;107.620;2023-05-12T07:46:23;93863.94;;;18.55;24.64
59829;BME280;45708;51.848;107.620;2023-05-12T07:51:24;93864.84;;;18.50;24.36
59829;BME280;45708;51.848;107.620;2023-05-12T07:56:24;93848.41;;;18.30;24.64
59829;BME280;45708;51.848;107.620;2023-05-12T08:01:25;93855.31;;;18.17;25.11
59829;BME280;45708;51.848;107.620;2023-05-12T08:06:26;93851.97;;;17.79;25.61
59829;BME280;45708;51.848;107.620;2023-05-12T08:11:27;93828.97;;;18.10;25.53
59829;BME280;45708;51.848;107.620;2023-05-12T08:16:28;93804.31;;;18.41;25.37
59829;BME280;45708;51.848;107.620;2023-05-12T08:21:28;93788.75;;;18.70;25.07
59829;BME280;45708;51.848;107.620;2023-05-12T08:26:29;93752.38;;;18.83;24.33
59829;BME280;45708;51.848;107.620;2023-05-12T08:31:31;93758.50;;;18.83;24.81
59829;BME280;45708;51.848;107.620;2023-05-12T08:36:31;93763.63;;;18.94;24.77
59829;BME280;45708;51.848;107.620;2023-05-12T08:41:42;93762.72;;;18.98;24.55
59829;BME280;45708;51.848;107.620;2023-05-12T08:46:45;93755.19;;;18.64;24.84
59829;BME280;45708;51.848;107.620;2023-05-12T08:51:47;93761.44;;;18.46;25.10
59829;BME280;45708;51.848;107.620;2023-05-12T08:56:50;93766.91;;;18.27;25.48
59829;BME280;45708;51.848;107.620;2023-05-12T09:01:52;93726.13;;;18.21;25.44
59829;BME280;45708;51.848;107.620;2023-05-12T09:06:54;93729.97;;;18.43;25.16
59829;BME280;45708;51.848;107.620;2023-05-12T09:11:55;93721.47;;;18.77;24.92
59829;BME280;45708;51.848;107.620;2023-05-12T09:17:02;93725.94;;;19.04;24.61
59829;BME280;45708;51.848;107.620;2023-05-12T09:22:04;93719.09;;;18.98;24.41
59829;BME280;45708;51.848;107.620;2023-05-12T09:27:05;93708.97;;;18.86;24.26
59829;BME280;45708;51.848;107.620;2023-05-12T09:32:06;93709.25;;;19.07;24.01
59829;BME280;45708;51.848;107.620;2023-05-12T09:37:07;93688.25;;;19.00;24.21
59829;BME280;45708;51.848;107.620;2023-05-12T09:42:11;93693.06;;;19.12;24.01
59829;BME280;45708;51.848;107.620;2023-05-12T09:47:12;93678.34;;;19.01;24.33
59829;BME280;45708;51.848;107.620;2023-05-12T09:52:13;93665.50;;;19.11;23.63
59829;BME280;45708;51.848;107.620;2023-05-12T09:57:15;93644.81;;;18.72;24.68
59829;BME280;45708;51.848;107.620;2023-05-12T10:02:17;93651.91;;;18.77;24.70
59829;BME280;45708;51.848;107.620;2023-05-12T10:07:21;93656.91;;;18.56;25.05
59829;BME280;45708;51.848;107.620;2023-05-12T10:12:22;93664.81;;;18.61;25.29
59829;BME280;45708;51.848;107.620;2023-05-12T10:17:24;93653.75;;;18.54;25.40
59829;BME280;45708;51.848;107.620;2023-05-12T10:22:27;93655.53;;;18.59;25.35
59829;BME280;45708;51.848;107.620;2023-05-12T10:27:28;93649.69;;;18.57;25.57
59829;BME280;45708;51.848;107.620;2023-05-12T10:32:32;93652.66;;;18.55;25.50
59829;BME280;45708;51.848;107.620;2023-05-12T10:37:34;93646.19;;;18.34;25.91
59829;BME280;45708;51.848;107.620;2023-05-12T10:42:40;93649.31;;;18.27;26.06
59829;BME280;45708;51.848;107.620;2023-05-12T10:47:41;93641.44;;;18.08;26.11
59829;BME280;45708;51.848;107.620;2023-05-12T10:52:55;93649.31;;;18.13;26.29
59829;BME280;45708;51.848;107.620;2023-05-12T10:58:04;93663.78;;;18.12;26.34
59829;BME280;45708;51.848;107.620;2023-05-12T11:03:10;93660.44;;;18.07;26.37
59829;BME280;45708;51.848;107.620;2023-05-12T11:08:11;93670.22;;;17.98;26.32
59829;BME280;45708;51.848;107.620;2023-05-12T11:13:12;93673.13;;;17.74;26.75
59829;BME280;45708;51.848;107.620;2023-05-12T11:18:19;93665.88;;;17.60;27.15
59829;BME280;45708;51.848;107.620;2023-05-12T11:23:27;93642.84;;;17.51;27.25
59829;BME280;45708;51.848;107.620;2023-05-12T11:28:28;93642.75;;;17.42;27.43
59829;BME280;45708;51.848;107.620;2023-05-12T11:33:29;93622.66;;;17.31;27.42
59829;BME280;45708;51.848;107.620;2023-05-12T11:38:30;93626.03;;;17.23;27.75
59829;BME280;45708;51.848;107.620;2023-05-12T11:43:30;93644.97;;;17.08;27.86
59829;BME280;45708;51.848;107.620;2023-05-12T11:48:34;93631.50;;;16.85;28.29
59829;BME280;45708;51.848;107.620;2023-05-12T11:53:39;93623.38;;;16.77;28.56
59829;BME280;45708;51.848;107.620;2023-05-12T11:58:51;93613.22;;;16.60;28.92
59829;BME280;45708;51.848;107.620;2023-05-12T12:03:53;93622.03;;;16.41;28.95
59829;BME280;45708;51.848;107.620;2023-05-12T12:08:56;93607.38;;;16.25;29.45
59829;BME280;45708;51.848;107.620;2023-05-12T12:13:57;93614.44;;;16.16;29.79
59829;BME280;45708;51.848;107.620;2023-05-12T12:18:58;93613.59;;;16.02;29.94
59829;BME280;45708;51.848;107.620;2023-05-12T12:23:59;93611.47;;;15.80;30.36
59829;BME280;45708;51.848;107.620;2023-05-12T12:29:00;93609.03;;;15.65;30.16
59829;BME280;45708;51.848;107.620;2023-05-12T12:34:01;93593.50;;;15.48;30.59
59829;BME280;45708;51.848;107.620;2023-05-12T12:39:02;93613.28;;;15.42;30.58
59829;BME280;45708;51.848;107.620;2023-05-12T12:44:03;93612.94;;;15.25;31.10
59829;BME280;45708;51.848;107.620;2023-05-12T12:49:04;93612.97;;;15.19;30.97
59829;BME280;45708;51.848;107.620;2023-05-12T12:54:05;93609.81;;;15.17;30.87
59829;BME280;45708;51.848;107.620;2023-05-12T12:59:06;93619.88;;;15.20;31.15
59829;BME280;45708;51.848;107.620;2023-05-12T13:04:07;93617.75;;;15.23;30.98
59829;BME280;45708;51.848;107.620;2023-05-12T13:09:07;93592.16;;;15.27;30.90
59829;BME280;45708;51.848;107.620;2023-05-12T13:14:08;93601.59;;;15.38;30.82
59829;BME280;45708;51.848;107.620;2023-05-12T13:19:09;93595.34;;;15.29;30.42
59829;BME280;45708;51.848;107.620;2023-05-12T13:24:10;93593.34;;;15.15;31.08
59829;BME280;45708;51.848;107.620;2023-05-12T13:29:11;93593.34;;;15.15;30.97
59829;BME280;45708;51.848;107.620;2023-05-12T13:34:12;93588.72;;;15.02;31.29
59829;BME280;45708;51.848;107.620;2023-05-12T13:39:13;93584.78;;;14.71;31.27
59829;BME280;45708;51.848;107.620;2023-05-12T13:44:14;93594.53;;;14.51;32.16
59829;BME280;45708;51.848;107.620;2023-05-12T13:49:15;93585.56;;;14.37;32.13
59829;BME280;45708;51.848;107.620;2023-05-12T13:54:16;93582.91;;;14.42;32.03
59829;BME280;45708;51.848;107.620;2023-05-12T13:59:17;93568.63;;;14.33;32.42
59829;BME280;45708;51.848;107.620;2023-05-12T14:04:17;93573.47;;;14.26;32.54
59829;BME280;45708;51.848;107.620;2023-05-12T14:09:18;93563.50;;;14.08;32.91
59829;BME280;45708;51.848;107.620;2023-05-12T14:14:19;93537.63;;;13.89;33.03
59829;BME280;45708;51.848;107.620;2023-05-12T14:19:20;93555.69;;;14.21;32.69
59829;BME280;45708;51.848;107.620;2023-05-12T14:24:21;93545.72;;;14.42;32.17
59829;BME280;45708;51.848;107.620;2023-05-12T14:29:22;93538.31;;;14.34;32.10
59829;BME280;45708;51.848;107.620;2023-05-12T14:34:22;93521.38;;;14.30;32.36
59829;BME280;45708;51.848;107.620;2023-05-12T14:39:23;93531.44;;;14.33;32.19
59829;BME280;45708;51.848;107.620;2023-05-12T14:44:24;93519.97;;;14.38;32.40
59829;BME280;45708;51.848;107.620;2023-05-12T14:49:25;93519.97;;;14.09;32.78
59829;BME280;45708;51.848;107.620;2023-05-12T14:54:26;93516.19;;;14.15;32.42
59829;BME280;45708;51.848;107.620;2023-05-12T14:59:28;93518.59;;;13.82;33.02
59829;BME280;45708;51.848;107.620;2023-05-12T15:04:29;93503.94;;;13.51;33.70
59829;BME280;45708;51.848;107.620;2023-05-12T15:09:30;93494.00;;;13.27;34.06
59829;BME280;45708;51.848;107.620;2023-05-12T15:14:32;93483.41;;;13.17;33.83
59829;BME280;45708;51.848;107.620;2023-05-12T15:19:33;93502.00;;;13.12;34.04
59829;BME280;45708;51.848;107.620;2023-05-12T15:24:34;93484.69;;;12.70;35.13
59829;BME280;45708;51.848;107.620;2023-05-12T15:29:39;93486.59;;;12.55;34.93
59829;BME280;45708;51.848;107.620;2023-05-12T15:34:39;93489.00;;;12.46;35.19
59829;BME280;45708;51.848;107.620;2023-05-12T15:39:40;93480.03;;;12.27;35.96
59829;BME280;45708;51.848;107.620;2023-05-12T15:44:41;93466.84;;;12.01;36.60
59829;BME280;45708;51.848;107.620;2023-05-12T15:49:46;93458.91;;;11.76;37.47
59829;BME280;45708;51.848;107.620;2023-05-12T15:54:47;93448.84;;;11.57;37.13
59829;BME280;45708;51.848;107.620;2023-05-12T15:59:47;93440.91;;;11.37;37.95
59829;BME280;45708;51.848;107.620;2023-05-12T16:04:48;93413.94;;;11.35;37.28
59829;BME280;45708;51.848;107.620;2023-05-12T16:09:49;93382.78;;;11.22;38.73
59829;BME280;45708;51.848;107.620;2023-05-12T16:14:50;93393.31;;;11.07;38.45
59829;BME280;45708;51.848;107.620;2023-05-12T16:19:51;93383.53;;;10.87;38.66
59829;BME280;45708;51.848;107.620;2023-05-12T16:24:51;93400.41;;;10.81;39.02
59829;BME280;45708;51.848;107.620;2023-05-12T16:29:52;93384.53;;;10.71;39.33
59829;BME280;45708;51.848;107.620;2023-05-12T16:34:53;93371.81;;;10.52;39.52
59829;BME280;45708;51.848;107.620;2023-05-12T16:39:54;93338.75;;;10.24;40.10
59829;BME280;45708;51.848;107.620;2023-05-12T16:44:54;93365.22;;;10.45;40.24
59829;BME280;45708;51.848;107.620;2023-05-12T16:49:55;93361.47;;;10.41;40.05
59829;BME280;45708;51.848;107.620;2023-05-12T16:54:56;93367.84;;;10.45;40.72
59829;BME280;45708;51.848;107.620;2023-05-12T16:59:58;93365.41;;;10.28;40.77
59829;BME280;45708;51.848;107.620;2023-05-12T17:04:59;93373.31;;;10.23;41.71
59829;BME280;45708;51.848;107.620;2023-05-12T17:10:00;93356.59;;;10.02;41.69
59829;BME280;45708;51.848;107.620;2023-05-12T17:15:00;93313.97;;;9.68;41.73
59829;BME280;45708;51.848;107.620;2023-05-12T17:20:03;93354.06;;;9.80;42.14
59829;BME280;45708;51.848;107.620;2023-05-12T17:25:04;93345.34;;;9.74;42.52
59829;BME280;45708;51.848;107.620;2023-05-12T17:30:05;93359.13;;;9.87;42.65
59829;BME280;45708;51.848;107.620;2023-05-12T17:35:07;93366.00;;;9.88;42.43
59829;BME280;45708;51.848;107.620;2023-05-12T17:40:13;93368.91;;;9.86;42.30
59829;BME280;45708;51.848;107.620;2023-05-12T17:45:15;93372.00;;;9.78;42.31
59829;BME280;45708;51.848;107.620;2023-05-12T17:50:16;93385.69;;;9.70;43.05
59829;BME280;45708;51.848;107.620;2023-05-12T17:55:17;93374.22;;;9.54;43.40
59829;BME280;45708;51.848;107.620;2023-05-12T18:00:18;93380.50;;;9.43;43.81
59829;BME280;45708;51.848;107.620;2023-05-12T18:05:19;93368.69;;;9.13;43.78
59829;BME280;45708;51.848;107.620;2023-05-12T18:10:20;93413.97;;;9.10;44.12
59829;BME280;45708;51.848;107.620;2023-05-12T18:15:21;93396.47;;;8.99;44.45
59829;BME280;45708;51.848;107.620;2023-05-12T18:20:22;93376.88;;;8.85;44.86
59829;BME280;45708;51.848;107.620;2023-05-12T18:25:23;93390.06;;;8.90;45.44
59829;BME280;45708;51.848;107.620;2023-05-12T18:30:23;93394.09;;;8.98;44.94
59829;BME280;45708;51.848;107.620;2023-05-12T18:35:24;93403.88;;;9.02;44.98
59829;BME280;45708;51.848;107.620;2023-05-12T18:40:25;93401.84;;;9.09;44.92
59829;BME280;45708;51.848;107.620;2023-05-12T18:45:26;93396.63;;;9.20;44.90
59829;BME280;45708;51.848;107.620;2023-05-12T18:50:27;93424.69;;;9.36;44.72
59829;BME280;45708;51.848;107.620;2023-05-12T18:55:28;93387.84;;;9.41;44.78
59829;BME280;45708;51.848;107.620;2023-05-12T19:00:29;93416.94;;;9.56;44.21
59829;BME280;45708;51.848;107.620;2023-05-12T19:05:29;93411.69;;;10.51;41.60
59829;BME280;45708;51.848;107.620;2023-05-12T19:10:30;93452.53;;;11.21;38.35
59829;BME280;45708;51.848;107.620;2023-05-12T19:15:31;93447.22;;;11.11;38.48
59829;BME280;45708;51.848;107.620;2023-05-12T19:20:32;93464.09;;;10.94;38.63
59829;BME280;45708;51.848;107.620;2023-05-12T19:25:33;93484.38;;;10.74;37.67
59829;BME280;45708;51.848;107.620;2023-05-12T19:30:34;93511.50;;;10.54;37.36
59829;BME280;45708;51.848;107.620;2023-05-12T19:35:35;93530.50;;;10.19;37.16
59829;BME280;45708;51.848;107.620;2023-05-12T19:40:36;93538.91;;;9.79;37.38
59829;BME280;45708;51.848;107.620;2023-05-12T19:45:36;93559.91;;;9.63;37.64
59829;BME280;45708;51.848;107.620;2023-05-12T19:50:37;93574.97;;;9.41;37.37
59829;BME280;45708;51.848;107.620;2023-05-12T19:55:38;93558.88;;;9.15;37.71
59829;BME280;45708;51.848;107.620;2023-05-12T20:00:39;93532.59;;;8.72;38.70
59829;BME280;45708;51.848;107.620;2023-05-12T20:05:40;93586.47;;;8.86;40.01
59829;BME280;45708;51.848;107.620;2023-05-12T20:10:40;93558.22;;;8.21;42.55
59829;BME280;45708;51.848;107.620;2023-05-12T20:15:41;93631.22;;;8.47;44.19
59829;BME280;45708;51.848;107.620;2023-05-12T20:20:42;93659.59;;;8.12;44.82
59829;BME280;45708;51.848;107.620;2023-05-12T20:25:43;93665.13;;;7.99;45.47
59829;BME280;45708;51.848;107.620;2023-05-12T20:30:43;93664.28;;;7.65;46.48
59829;BME280;45708;51.848;107.620;2023-05-12T20:35:44;93664.59;;;7.40;47.72
59829;BME280;45708;51.848;107.620;2023-05-12T20:40:45;93661.53;;;7.43;48.29
59829;BME280;45708;51.848;107.620;2023-05-12T20:45:46;93683.94;;;7.33;48.53
59829;BME280;45708;51.848;107.620;2023-05-12T20:50:47;93670.03;;;7.21;49.60
59829;BME280;45708;51.848;107.620;2023-05-12T20:55:48;93682.72;;;7.24;50.38
59829;BME280;45708;51.848;107.620;2023-05-12T21:00:48;93689.31;;;7.27;50.15
59829;BME280;45708;51.848;107.620;2023-05-12T21:05:49;93683.63;;;7.18;50.53
59829;BME280;45708;51.848;107.620;2023-05-12T21:10:50;93729.41;;;7.22;50.23
59829;BME280;45708;51.848;107.620;2023-05-12T21:15:51;93749.06;;;7.08;51.58
59829;BME280;45708;51.848;107.620;2023-05-12T21:20:51;93764.16;;;7.01;53.29
59829;BME280;45708;51.848;107.620;2023-05-12T21:25:52;93773.03;;;6.77;55.20
59829;BME280;45708;51.848;107.620;2023-05-12T21:30:53;93807.44;;;6.45;58.54
59829;BME280;45708;51.848;107.620;2023-05-12T21:35:54;93820.69;;;5.90;61.88
59829;BME280;45708;51.848;107.620;2023-05-12T21:40:55;93819.97;;;5.46;64.86
59829;BME280;45708;51.848;107.620;2023-05-12T21:46:00;93827.69;;;4.98;67.09
59829;BME280;45708;51.848;107.620;2023-05-12T21:51:02;93849.19;;;4.75;69.63
59829;BME280;45708;51.848;107.620;2023-05-12T21:56:03;93849.41;;;4.49;72.45
59829;BME280;45708;51.848;107.620;2023-05-12T22:01:04;93864.78;;;4.32;74.12
59829;BME280;45708;51.848;107.620;2023-05-12T22:06:05;93872.41;;;4.34;75.39
59829;BME280;45708;51.848;107.620;2023-05-12T22:11:06;93864.03;;;4.25;76.53
59829;BME280;45708;51.848;107.620;2023-05-12T22:16:07;93857.22;;;4.17;77.58
59829;BME280;45708;51.848;107.620;2023-05-12T22:21:11;93886.13;;;4.29;78.04
59829;BME280;45708;51.848;107.620;2023-05-12T22:26:12;93856.56;;;4.28;78.61
59829;BME280;45708;51.848;107.620;2023-05-12T22:31:13;93821.03;;;4.21;80.09
59829;BME280;45708;51.848;107.620;2023-05-12T22:36:14;93851.06;;;4.43;80.21
59829;BME280;45708;51.848;107.620;2023-05-12T22:41:15;93827.44;;;4.25;81.05
59829;BME280;45708;51.848;107.620;2023-05-12T22:46:16;93897.94;;;4.70;80.47
59829;BME280;45708;51.848;107.620;2023-05-12T22:51:17;93890.31;;;4.68;81.85
59829;BME280;45708;51.848;107.620;2023-05-12T22:56:18;93893.47;;;4.77;81.98
59829;BME280;45708;51.848;107.620;2023-05-12T23:01:20;93885.81;;;4.75;82.04
59829;BME280;45708;51.848;107.620;2023-05-12T23:06:21;93917.56;;;4.85;83.73
59829;BME280;45708;51.848;107.620;2023-05-12T23:11:22;93931.31;;;4.74;83.51
59829;BME280;45708;51.848;107.620;2023-05-12T23:16:23;93940.94;;;4.80;83.23
59829;BME280;45708;51.848;107.620;2023-05-12T23:21:24;93927.69;;;4.75;84.66
59829;BME280;45708;51.848;107.620;2023-05-12T23:26:24;93930.47;;;4.80;84.16
59829;BME280;45708;51.848;107.620;2023-05-12T23:31:25;93918.06;;;4.69;84.90
59829;BME280;45708;51.848;107.620;2023-05-12T23:36:26;93945.72;;;4.90;85.30
59829;BME280;45708;51.848;107.620;2023-05-12T23:41:27;93950.06;;;5.03;85.27
59829;BME280;45708;51.848;107.620;2023-05-12T23:46:28;93933.16;;;4.99;85.21
59829;BME280;45708;51.848;107.620;2023-05-12T23:51:28;93941.00;;;4.99;86.19
59829;BME280;45708;51.848;107.620;2023-05-12T23:56:29;93937.28;;;5.13;86.09
